sensor_id;sensor_type;location;lat;lon;timestamp;P1;durP1;ratioP1;P2;durP2;ratioP2
3847;SDS011;1939;48.720;9.166;2022-08-30T00:00:50;11.00;;;7.77;;
3847;SDS011;1939;48.720;9.166;2022-08-30T00:03:30;9.30;;;7.50;;
3847;SDS011;1939;48.720;9.166;2022-08-30T00:05:56;12.17;;;8.10;;
3847;SDS011;1939;48.720;9.166;2022-08-30T00:08:21;12.37;;;8.40;;
3847;SDS011;1939;48.720;9.166;2022-08-30T00:10:46;10.87;;;7.50;;
3847;SDS011;1939;48.720;9.166;2022-08-30T00:13:12;10.83;;;7.70;;
3847;SDS011;1939;48.720;9.166;2022-08-30T00:15:39;13.77;;;8.50;;
3847;SDS011;1939;48.720;9.166;2022-08-30T00:18:05;9.20;;;7.47;;
3847;SDS011;1939;48.720;9.166;2022-08-30T00:20:31;9.83;;;8.10;;
3847;SDS011;1939;48.720;9.166;2022-08-30T00:22:58;13.03;;;8.20;;
3847;SDS011;1939;48.720;9.166;2022-08-30T00:25:24;9.90;;;8.20;;
3847;SDS011;1939;48.720;9.166;2022-08-30T00:27:49;9.23;;;7.87;;
3847;SDS011;1939;48.720;9.166;2022-08-30T00:30:15;14.23;;;9.30;;
3847;SDS011;1939;48.720;9.166;2022-08-30T00:32:40;10.13;;;7.40;;
3847;SDS011;1939;48.720;9.166;2022-08-30T00:35:06;10.40;;;7.90;;
3847;SDS011;1939;48.720;9.166;2022-08-30T00:37:32;14.40;;;8.70;;
3847;SDS011;1939;48.720;9.166;2022-08-30T00:39:57;15.73;;;8.73;;
3847;SDS011;1939;48.720;9.166;2022-08-30T00:42:22;11.33;;;7.80;;
3847;SDS011;1939;48.720;9.166;2022-08-30T00:44:48;11.50;;;8.57;;
3847;SDS011;1939;48.720;9.166;2022-08-30T00:47:13;12.93;;;8.43;;
3847;SDS011;1939;48.720;9.166;2022-08-30T00:49:40;12.13;;;7.37;;
3847;SDS011;1939;48.720;9.166;2022-08-30T00:52:06;8.30;;;6.93;;
3847;SDS011;1939;48.720;9.166;2022-08-30T00:54:32;14.40;;;8.40;;
3847;SDS011;1939;48.720;9.166;2022-08-30T00:56:57;13.87;;;8.70;;
3847;SDS011;1939;48.720;9.166;2022-08-30T00:59:23;20.47;;;9.00;;
3847;SDS011;1939;48.720;9.166;2022-08-30T01:01:49;14.03;;;7.90;;
3847;SDS011;1939;48.720;9.166;2022-08-30T01:04:15;10.80;;;7.93;;
3847;SDS011;1939;48.720;9.166;2022-08-30T01:06:41;13.13;;;7.67;;
3847;SDS011;1939;48.720;9.166;2022-08-30T01:09:06;13.50;;;8.07;;
3847;SDS011;1939;48.720;9.166;2022-08-30T01:11:32;11.67;;;7.93;;
3847;SDS011;1939;48.720;9.166;2022-08-30T01:13:58;12.17;;;7.97;;
3847;SDS011;1939;48.720;9.166;2022-08-30T01:16:25;15.90;;;7.90;;
3847;SDS011;1939;48.720;9.166;2022-08-30T01:18:51;12.90;;;8.73;;
3847;SDS011;1939;48.720;9.166;2022-08-30T01:23:58;10.40;;;8.17;;
3847;SDS011;1939;48.720;9.166;2022-08-30T01:26:24;12.77;;;8.97;;
3847;SDS011;1939;48.720;9.166;2022-08-30T01:28:51;14.53;;;8.83;;
3847;SDS011;1939;48.720;9.166;2022-08-30T01:31:18;12.13;;;8.83;;
3847;SDS011;1939;48.720;9.166;2022-08-30T01:33:44;12.27;;;8.97;;
3847;SDS011;1939;48.720;9.166;2022-08-30T01:36:10;13.77;;;8.63;;
3847;SDS011;1939;48.720;9.166;2022-08-30T01:38:42;15.30;;;8.87;;
3847;SDS011;1939;48.720;9.166;2022-08-30T01:41:11;18.50;;;9.80;;
3847;SDS011;1939;48.720;9.166;2022-08-30T01:43:37;12.40;;;9.13;;
3847;SDS011;1939;48.720;9.166;2022-08-30T01:46:02;15.03;;;9.70;;
3847;SDS011;1939;48.720;9.166;2022-08-30T01:48:28;14.33;;;9.73;;
3847;SDS011;1939;48.720;9.166;2022-08-30T01:50:53;11.80;;;8.60;;
3847;SDS011;1939;48.720;9.166;2022-08-30T01:53:19;13.23;;;8.53;;
3847;SDS011;1939;48.720;9.166;2022-08-30T01:55:44;18.00;;;8.90;;
3847;SDS011;1939;48.720;9.166;2022-08-30T01:58:09;10.60;;;8.03;;
3847;SDS011;1939;48.720;9.166;2022-08-30T02:00:35;10.80;;;7.97;;
3847;SDS011;1939;48.720;9.166;2022-08-30T02:03:00;15.37;;;8.97;;
3847;SDS011;1939;48.720;9.166;2022-08-30T02:05:25;10.13;;;8.70;;
3847;SDS011;1939;48.720;9.166;2022-08-30T02:07:50;12.20;;;9.30;;
3847;SDS011;1939;48.720;9.166;2022-08-30T02:10:16;15.10;;;9.23;;
3847;SDS011;1939;48.720;9.166;2022-08-30T02:12:41;19.17;;;8.70;;
3847;SDS011;1939;48.720;9.166;2022-08-30T02:15:06;18.67;;;8.73;;
3847;SDS011;1939;48.720;9.166;2022-08-30T02:17:31;11.50;;;8.50;;
3847;SDS011;1939;48.720;9.166;2022-08-30T02:19:57;14.80;;;10.60;;
3847;SDS011;1939;48.720;9.166;2022-08-30T02:22:22;14.43;;;9.03;;
3847;SDS011;1939;48.720;9.166;2022-08-30T02:24:47;11.90;;;8.53;;
3847;SDS011;1939;48.720;9.166;2022-08-30T02:27:12;13.00;;;8.80;;
3847;SDS011;1939;48.720;9.166;2022-08-30T02:29:37;13.00;;;8.50;;
3847;SDS011;1939;48.720;9.166;2022-08-30T02:32:03;14.93;;;8.37;;
3847;SDS011;1939;48.720;9.166;2022-08-30T02:34:28;13.97;;;11.43;;
3847;SDS011;1939;48.720;9.166;2022-08-30T02:36:53;11.80;;;9.83;;
3847;SDS011;1939;48.720;9.166;2022-08-30T02:39:19;14.00;;;9.10;;
3847;SDS011;1939;48.720;9.166;2022-08-30T02:41:44;14.97;;;9.73;;
3847;SDS011;1939;48.720;9.166;2022-08-30T02:44:10;15.00;;;9.77;;
3847;SDS011;1939;48.720;9.166;2022-08-30T02:46:35;13.90;;;9.80;;
3847;SDS011;1939;48.720;9.166;2022-08-30T02:49:00;16.00;;;11.27;;
3847;SDS011;1939;48.720;9.166;2022-08-30T02:51:26;14.07;;;10.40;;
3847;SDS011;1939;48.720;9.166;2022-08-30T02:53:51;14.47;;;10.33;;
3847;SDS011;1939;48.720;9.166;2022-08-30T02:56:16;16.97;;;8.83;;
3847;SDS011;1939;48.720;9.166;2022-08-30T02:58:41;15.43;;;9.20;;
3847;SDS011;1939;48.720;9.166;2022-08-30T03:01:07;16.57;;;10.27;;
3847;SDS011;1939;48.720;9.166;2022-08-30T03:03:33;10.33;;;9.27;;
3847;SDS011;1939;48.720;9.166;2022-08-30T03:05:58;13.00;;;9.60;;
3847;SDS011;1939;48.720;9.166;2022-08-30T03:08:23;17.07;;;9.87;;
3847;SDS011;1939;48.720;9.166;2022-08-30T03:10:49;14.40;;;10.50;;
3847;SDS011;1939;48.720;9.166;2022-08-30T03:13:14;14.03;;;9.73;;
3847;SDS011;1939;48.720;9.166;2022-08-30T03:15:39;17.10;;;10.27;;
3847;SDS011;1939;48.720;9.166;2022-08-30T03:18:05;17.27;;;9.47;;
3847;SDS011;1939;48.720;9.166;2022-08-30T03:20:30;16.03;;;8.17;;
3847;SDS011;1939;48.720;9.166;2022-08-30T03:22:55;11.10;;;8.53;;
3847;SDS011;1939;48.720;9.166;2022-08-30T03:25:21;15.33;;;9.93;;
3847;SDS011;1939;48.720;9.166;2022-08-30T03:27:46;17.03;;;10.90;;
3847;SDS011;1939;48.720;9.166;2022-08-30T03:30:12;19.37;;;8.40;;
3847;SDS011;1939;48.720;9.166;2022-08-30T03:32:37;13.40;;;10.30;;
3847;SDS011;1939;48.720;9.166;2022-08-30T03:35:02;18.47;;;10.73;;
3847;SDS011;1939;48.720;9.166;2022-08-30T03:37:28;16.57;;;11.60;;
3847;SDS011;1939;48.720;9.166;2022-08-30T03:39:53;11.10;;;9.47;;
3847;SDS011;1939;48.720;9.166;2022-08-30T03:42:19;14.57;;;10.03;;
3847;SDS011;1939;48.720;9.166;2022-08-30T03:44:44;14.70;;;10.07;;
3847;SDS011;1939;48.720;9.166;2022-08-30T03:47:09;17.17;;;11.57;;
3847;SDS011;1939;48.720;9.166;2022-08-30T03:49:35;14.17;;;9.90;;
3847;SDS011;1939;48.720;9.166;2022-08-30T03:52:00;14.20;;;10.13;;
3847;SDS011;1939;48.720;9.166;2022-08-30T03:54:25;12.83;;;9.83;;
3847;SDS011;1939;48.720;9.166;2022-08-30T03:56:50;25.50;;;10.40;;
3847;SDS011;1939;48.720;9.166;2022-08-30T03:59:15;13.80;;;10.07;;
3847;SDS011;1939;48.720;9.166;2022-08-30T04:01:41;14.10;;;9.20;;
3847;SDS011;1939;48.720;9.166;2022-08-30T04:04:06;16.00;;;9.93;;
3847;SDS011;1939;48.720;9.166;2022-08-30T04:06:31;17.37;;;10.60;;
3847;SDS011;1939;48.720;9.166;2022-08-30T04:08:57;12.93;;;9.50;;
3847;SDS011;1939;48.720;9.166;2022-08-30T04:11:22;13.07;;;9.13;;
3847;SDS011;1939;48.720;9.166;2022-08-30T04:13:47;12.50;;;9.60;;
3847;SDS011;1939;48.720;9.166;2022-08-30T04:16:16;17.33;;;10.37;;
3847;SDS011;1939;48.720;9.166;2022-08-30T04:18:42;14.73;;;9.33;;
3847;SDS011;1939;48.720;9.166;2022-08-30T04:21:07;15.27;;;10.60;;
3847;SDS011;1939;48.720;9.166;2022-08-30T04:23:32;15.87;;;10.17;;
3847;SDS011;1939;48.720;9.166;2022-08-30T04:25:57;17.63;;;10.83;;
3847;SDS011;1939;48.720;9.166;2022-08-30T04:28:23;16.00;;;10.87;;
3847;SDS011;1939;48.720;9.166;2022-08-30T04:30:48;16.70;;;10.20;;
3847;SDS011;1939;48.720;9.166;2022-08-30T04:33:14;20.37;;;11.80;;
3847;SDS011;1939;48.720;9.166;2022-08-30T04:35:43;15.33;;;9.80;;
3847;SDS011;1939;48.720;9.166;2022-08-30T04:38:09;16.63;;;10.70;;
3847;SDS011;1939;48.720;9.166;2022-08-30T04:40:35;17.93;;;10.47;;
3847;SDS011;1939;48.720;9.166;2022-08-30T04:43:00;14.27;;;10.10;;
3847;SDS011;1939;48.720;9.166;2022-08-30T04:45:25;15.63;;;11.13;;
3847;SDS011;1939;48.720;9.166;2022-08-30T04:47:50;14.47;;;10.17;;
3847;SDS011;1939;48.720;9.166;2022-08-30T04:50:17;15.70;;;10.53;;
3847;SDS011;1939;48.720;9.166;2022-08-30T04:52:42;13.13;;;9.73;;
3847;SDS011;1939;48.720;9.166;2022-08-30T04:55:07;17.37;;;10.60;;
3847;SDS011;1939;48.720;9.166;2022-08-30T04:57:34;15.43;;;10.70;;
3847;SDS011;1939;48.720;9.166;2022-08-30T04:59:59;15.47;;;10.77;;
3847;SDS011;1939;48.720;9.166;2022-08-30T05:02:24;15.47;;;10.70;;
3847;SDS011;1939;48.720;9.166;2022-08-30T05:04:50;13.93;;;10.53;;
3847;SDS011;1939;48.720;9.166;2022-08-30T05:07:33;11.97;;;8.90;;
3847;SDS011;1939;48.720;9.166;2022-08-30T05:09:59;14.37;;;9.30;;
3847;SDS011;1939;48.720;9.166;2022-08-30T05:12:24;14.67;;;10.23;;
3847;SDS011;1939;48.720;9.166;2022-08-30T05:14:49;20.47;;;10.80;;
3847;SDS011;1939;48.720;9.166;2022-08-30T05:17:14;14.63;;;9.73;;
3847;SDS011;1939;48.720;9.166;2022-08-30T05:19:40;16.03;;;10.40;;
3847;SDS011;1939;48.720;9.166;2022-08-30T05:22:05;13.80;;;9.70;;
3847;SDS011;1939;48.720;9.166;2022-08-30T05:24:30;26.07;;;10.47;;
3847;SDS011;1939;48.720;9.166;2022-08-30T05:26:56;23.43;;;10.27;;
3847;SDS011;1939;48.720;9.166;2022-08-30T05:29:21;12.93;;;9.50;;
3847;SDS011;1939;48.720;9.166;2022-08-30T05:31:46;12.90;;;9.03;;
3847;SDS011;1939;48.720;9.166;2022-08-30T05:34:12;15.63;;;10.10;;
3847;SDS011;1939;48.720;9.166;2022-08-30T05:36:37;14.47;;;9.70;;
3847;SDS011;1939;48.720;9.166;2022-08-30T05:39:03;13.90;;;9.30;;
3847;SDS011;1939;48.720;9.166;2022-08-30T05:41:29;12.30;;;8.80;;
3847;SDS011;1939;48.720;9.166;2022-08-30T05:43:54;13.70;;;8.37;;
3847;SDS011;1939;48.720;9.166;2022-08-30T05:46:20;13.30;;;9.33;;
3847;SDS011;1939;48.720;9.166;2022-08-30T05:48:46;12.80;;;8.83;;
3847;SDS011;1939;48.720;9.166;2022-08-30T05:51:16;10.63;;;8.33;;
3847;SDS011;1939;48.720;9.166;2022-08-30T05:53:42;11.83;;;8.57;;
3847;SDS011;1939;48.720;9.166;2022-08-30T05:56:09;14.50;;;10.27;;
3847;SDS011;1939;48.720;9.166;2022-08-30T05:58:35;12.83;;;9.13;;
3847;SDS011;1939;48.720;9.166;2022-08-30T06:01:00;13.43;;;9.67;;
3847;SDS011;1939;48.720;9.166;2022-08-30T06:03:26;10.97;;;8.83;;
3847;SDS011;1939;48.720;9.166;2022-08-30T06:05:52;20.73;;;9.30;;
3847;SDS011;1939;48.720;9.166;2022-08-30T06:08:17;15.77;;;10.10;;
3847;SDS011;1939;48.720;9.166;2022-08-30T06:10:42;17.73;;;11.67;;
3847;SDS011;1939;48.720;9.166;2022-08-30T06:13:08;15.00;;;10.67;;
3847;SDS011;1939;48.720;9.166;2022-08-30T06:15:33;14.77;;;10.60;;
3847;SDS011;1939;48.720;9.166;2022-08-30T06:17:58;20.07;;;12.40;;
3847;SDS011;1939;48.720;9.166;2022-08-30T06:20:23;21.63;;;10.03;;
3847;SDS011;1939;48.720;9.166;2022-08-30T06:22:49;14.83;;;10.50;;
3847;SDS011;1939;48.720;9.166;2022-08-30T06:25:14;11.63;;;10.20;;
3847;SDS011;1939;48.720;9.166;2022-08-30T06:27:40;11.77;;;9.67;;
3847;SDS011;1939;48.720;9.166;2022-08-30T06:30:06;21.90;;;9.80;;
3847;SDS011;1939;48.720;9.166;2022-08-30T06:32:32;11.50;;;10.10;;
3847;SDS011;1939;48.720;9.166;2022-08-30T06:34:57;12.00;;;9.33;;
3847;SDS011;1939;48.720;9.166;2022-08-30T06:37:23;9.20;;;8.30;;
3847;SDS011;1939;48.720;9.166;2022-08-30T06:39:48;13.30;;;8.20;;
3847;SDS011;1939;48.720;9.166;2022-08-30T06:42:13;9.77;;;7.87;;
3847;SDS011;1939;48.720;9.166;2022-08-30T06:44:38;13.73;;;8.60;;
3847;SDS011;1939;48.720;9.166;2022-08-30T06:47:03;11.23;;;9.03;;
3847;SDS011;1939;48.720;9.166;2022-08-30T06:49:29;9.43;;;7.90;;
3847;SDS011;1939;48.720;9.166;2022-08-30T06:51:54;13.93;;;8.57;;
3847;SDS011;1939;48.720;9.166;2022-08-30T06:54:19;10.33;;;7.87;;
3847;SDS011;1939;48.720;9.166;2022-08-30T06:56:45;11.80;;;8.20;;
3847;SDS011;1939;48.720;9.166;2022-08-30T06:59:10;15.27;;;10.70;;
3847;SDS011;1939;48.720;9.166;2022-08-30T07:01:35;17.60;;;12.43;;
3847;SDS011;1939;48.720;9.166;2022-08-30T07:04:01;9.50;;;8.50;;
3847;SDS011;1939;48.720;9.166;2022-08-30T07:06:27;9.00;;;8.10;;
3847;SDS011;1939;48.720;9.166;2022-08-30T07:08:52;12.40;;;9.67;;
3847;SDS011;1939;48.720;9.166;2022-08-30T07:11:28;12.60;;;8.90;;
3847;SDS011;1939;48.720;9.166;2022-08-30T07:13:53;8.53;;;7.63;;
3847;SDS011;1939;48.720;9.166;2022-08-30T07:16:18;9.17;;;8.17;;
3847;SDS011;1939;48.720;9.166;2022-08-30T07:18:44;11.73;;;8.20;;
3847;SDS011;1939;48.720;9.166;2022-08-30T07:21:15;11.10;;;8.10;;
3847;SDS011;1939;48.720;9.166;2022-08-30T07:23:42;17.47;;;8.83;;
3847;SDS011;1939;48.720;9.166;2022-08-30T07:26:09;11.20;;;8.43;;
3847;SDS011;1939;48.720;9.166;2022-08-30T07:28:38;11.63;;;8.20;;
3847;SDS011;1939;48.720;9.166;2022-08-30T07:31:03;11.73;;;7.57;;
3847;SDS011;1939;48.720;9.166;2022-08-30T07:33:29;14.53;;;8.77;;
3847;SDS011;1939;48.720;9.166;2022-08-30T07:35:54;8.70;;;7.73;;
3847;SDS011;1939;48.720;9.166;2022-08-30T07:38:20;8.30;;;6.80;;
3847;SDS011;1939;48.720;9.166;2022-08-30T07:40:45;11.20;;;7.90;;
3847;SDS011;1939;48.720;9.166;2022-08-30T07:43:10;11.70;;;7.77;;
3847;SDS011;1939;48.720;9.166;2022-08-30T07:45:36;19.73;;;8.90;;
3847;SDS011;1939;48.720;9.166;2022-08-30T07:48:02;12.00;;;8.83;;
3847;SDS011;1939;48.720;9.166;2022-08-30T07:50:28;8.37;;;7.47;;
3847;SDS011;1939;48.720;9.166;2022-08-30T07:52:53;8.67;;;7.07;;
3847;SDS011;1939;48.720;9.166;2022-08-30T07:55:18;10.93;;;7.50;;
3847;SDS011;1939;48.720;9.166;2022-08-30T07:57:43;15.30;;;7.50;;
3847;SDS011;1939;48.720;9.166;2022-08-30T08:00:09;8.27;;;7.07;;
3847;SDS011;1939;48.720;9.166;2022-08-30T08:02:34;9.23;;;7.20;;
3847;SDS011;1939;48.720;9.166;2022-08-30T08:05:01;14.30;;;7.03;;
3847;SDS011;1939;48.720;9.166;2022-08-30T08:07:26;8.63;;;6.57;;
3847;SDS011;1939;48.720;9.166;2022-08-30T08:09:51;10.13;;;6.40;;
3847;SDS011;1939;48.720;9.166;2022-08-30T08:12:17;11.30;;;5.30;;
3847;SDS011;1939;48.720;9.166;2022-08-30T08:14:42;9.90;;;6.23;;
3847;SDS011;1939;48.720;9.166;2022-08-30T08:17:07;6.10;;;5.37;;
3847;SDS011;1939;48.720;9.166;2022-08-30T08:19:33;5.30;;;4.90;;
3847;SDS011;1939;48.720;9.166;2022-08-30T08:21:58;6.80;;;5.60;;
3847;SDS011;1939;48.720;9.166;2022-08-30T08:24:25;6.40;;;5.80;;
3847;SDS011;1939;48.720;9.166;2022-08-30T08:26:50;10.83;;;6.50;;
3847;SDS011;1939;48.720;9.166;2022-08-30T08:29:15;6.33;;;5.10;;
3847;SDS011;1939;48.720;9.166;2022-08-30T08:31:41;6.10;;;5.53;;
3847;SDS011;1939;48.720;9.166;2022-08-30T08:34:06;6.10;;;5.60;;
3847;SDS011;1939;48.720;9.166;2022-08-30T08:36:32;6.33;;;5.73;;
3847;SDS011;1939;48.720;9.166;2022-08-30T08:38:58;5.77;;;5.23;;
3847;SDS011;1939;48.720;9.166;2022-08-30T08:43:55;6.83;;;4.90;;
3847;SDS011;1939;48.720;9.166;2022-08-30T08:46:32;5.67;;;4.80;;
3847;SDS011;1939;48.720;9.166;2022-08-30T08:49:01;8.50;;;5.20;;
3847;SDS011;1939;48.720;9.166;2022-08-30T08:51:27;5.70;;;5.20;;
3847;SDS011;1939;48.720;9.166;2022-08-30T08:54:15;9.83;;;4.90;;
3847;SDS011;1939;48.720;9.166;2022-08-30T08:56:43;6.30;;;5.00;;
3847;SDS011;1939;48.720;9.166;2022-08-30T08:59:09;4.80;;;4.50;;
3847;SDS011;1939;48.720;9.166;2022-08-30T09:01:35;5.33;;;4.57;;
3847;SDS011;1939;48.720;9.166;2022-08-30T09:04:04;11.80;;;4.93;;
3847;SDS011;1939;48.720;9.166;2022-08-30T09:06:41;7.83;;;5.30;;
3847;SDS011;1939;48.720;9.166;2022-08-30T09:09:07;8.83;;;5.30;;
3847;SDS011;1939;48.720;9.166;2022-08-30T09:11:36;9.10;;;5.73;;
3847;SDS011;1939;48.720;9.166;2022-08-30T09:14:02;8.20;;;5.03;;
3847;SDS011;1939;48.720;9.166;2022-08-30T09:19:17;5.30;;;4.80;;
3847;SDS011;1939;48.720;9.166;2022-08-30T09:21:55;8.83;;;4.93;;
3847;SDS011;1939;48.720;9.166;2022-08-30T09:24:20;4.20;;;3.80;;
3847;SDS011;1939;48.720;9.166;2022-08-30T09:26:45;5.57;;;4.23;;
3847;SDS011;1939;48.720;9.166;2022-08-30T09:29:15;4.53;;;4.20;;
3847;SDS011;1939;48.720;9.166;2022-08-30T09:31:47;4.87;;;4.10;;
3847;SDS011;1939;48.720;9.166;2022-08-30T09:34:15;5.93;;;4.97;;
3847;SDS011;1939;48.720;9.166;2022-08-30T09:36:46;6.20;;;5.63;;
3847;SDS011;1939;48.720;9.166;2022-08-30T09:39:34;5.00;;;4.57;;
3847;SDS011;1939;48.720;9.166;2022-08-30T09:42:17;5.90;;;5.27;;
3847;SDS011;1939;48.720;9.166;2022-08-30T09:44:43;5.20;;;4.30;;
3847;SDS011;1939;48.720;9.166;2022-08-30T09:47:17;5.90;;;4.73;;
3847;SDS011;1939;48.720;9.166;2022-08-30T09:49:42;5.63;;;5.23;;
3847;SDS011;1939;48.720;9.166;2022-08-30T09:52:14;7.67;;;4.50;;
3847;SDS011;1939;48.720;9.166;2022-08-30T09:57:06;6.53;;;5.23;;
3847;SDS011;1939;48.720;9.166;2022-08-30T09:59:49;4.80;;;4.20;;
3847;SDS011;1939;48.720;9.166;2022-08-30T10:02:37;6.07;;;5.50;;
3847;SDS011;1939;48.720;9.166;2022-08-30T10:05:29;5.20;;;4.70;;
3847;SDS011;1939;48.720;9.166;2022-08-30T10:10:42;5.43;;;5.00;;
3847;SDS011;1939;48.720;9.166;2022-08-30T10:15:50;6.33;;;5.73;;
3847;SDS011;1939;48.720;9.166;2022-08-30T10:18:20;7.70;;;6.20;;
3847;SDS011;1939;48.720;9.166;2022-08-30T10:23:34;5.27;;;4.77;;
3847;SDS011;1939;48.720;9.166;2022-08-30T10:31:02;5.70;;;4.57;;
3847;SDS011;1939;48.720;9.166;2022-08-30T10:33:32;8.23;;;5.07;;
3847;SDS011;1939;48.720;9.166;2022-08-30T10:35:59;6.80;;;5.60;;
3847;SDS011;1939;48.720;9.166;2022-08-30T10:38:28;6.27;;;5.67;;
3847;SDS011;1939;48.720;9.166;2022-08-30T10:46:04;9.07;;;5.85;;
3847;SDS011;1939;48.720;9.166;2022-08-30T10:48:34;8.50;;;5.33;;
3847;SDS011;1939;48.720;9.166;2022-08-30T10:51:02;6.03;;;5.43;;
3847;SDS011;1939;48.720;9.166;2022-08-30T10:53:31;8.53;;;5.07;;
3847;SDS011;1939;48.720;9.166;2022-08-30T10:56:17;7.77;;;6.43;;
3847;SDS011;1939;48.720;9.166;2022-08-30T10:58:44;6.03;;;5.37;;
3847;SDS011;1939;48.720;9.166;2022-08-30T11:01:21;7.13;;;5.50;;
3847;SDS011;1939;48.720;9.166;2022-08-30T11:11:27;9.90;;;7.00;;
3847;SDS011;1939;48.720;9.166;2022-08-30T11:13:53;6.10;;;5.50;;
3847;SDS011;1939;48.720;9.166;2022-08-30T11:16:19;11.70;;;5.80;;
3847;SDS011;1939;48.720;9.166;2022-08-30T11:18:57;5.13;;;4.40;;
3847;SDS011;1939;48.720;9.166;2022-08-30T11:23:58;6.17;;;5.57;;
3847;SDS011;1939;48.720;9.166;2022-08-30T11:29:07;7.23;;;5.03;;
3847;SDS011;1939;48.720;9.166;2022-08-30T11:31:34;6.50;;;5.90;;
3847;SDS011;1939;48.720;9.166;2022-08-30T11:34:00;11.70;;;5.00;;
3847;SDS011;1939;48.720;9.166;2022-08-30T11:41:29;6.00;;;5.40;;
3847;SDS011;1939;48.720;9.166;2022-08-30T11:43:55;10.20;;;5.10;;
3847;SDS011;1939;48.720;9.166;2022-08-30T11:46:36;6.23;;;5.63;;
3847;SDS011;1939;48.720;9.166;2022-08-30T11:57:03;6.33;;;5.77;;
3847;SDS011;1939;48.720;9.166;2022-08-30T12:01:59;8.37;;;5.90;;
3847;SDS011;1939;48.720;9.166;2022-08-30T12:04:26;7.60;;;5.77;;
3847;SDS011;1939;48.720;9.166;2022-08-30T12:06:56;7.03;;;5.13;;
3847;SDS011;1939;48.720;9.166;2022-08-30T12:11:50;7.33;;;4.97;;
3847;SDS011;1939;48.720;9.166;2022-08-30T12:14:30;12.13;;;5.80;;
3847;SDS011;1939;48.720;9.166;2022-08-30T12:16:56;7.77;;;5.17;;
3847;SDS011;1939;48.720;9.166;2022-08-30T12:19:41;6.67;;;5.13;;
3847;SDS011;1939;48.720;9.166;2022-08-30T12:22:07;7.03;;;5.70;;
3847;SDS011;1939;48.720;9.166;2022-08-30T12:24:40;7.50;;;4.93;;
3847;SDS011;1939;48.720;9.166;2022-08-30T12:27:27;5.97;;;5.37;;
3847;SDS011;1939;48.720;9.166;2022-08-30T12:29:54;5.70;;;5.20;;
3847;SDS011;1939;48.720;9.166;2022-08-30T12:32:19;5.87;;;4.80;;
3847;SDS011;1939;48.720;9.166;2022-08-30T12:34:51;7.63;;;5.17;;
3847;SDS011;1939;48.720;9.166;2022-08-30T12:39:48;8.57;;;4.63;;
3847;SDS011;1939;48.720;9.166;2022-08-30T12:42:26;6.00;;;5.00;;
3847;SDS011;1939;48.720;9.166;2022-08-30T12:44:52;6.70;;;5.30;;
3847;SDS011;1939;48.720;9.166;2022-08-30T12:47:20;5.80;;;5.23;;
3847;SDS011;1939;48.720;9.166;2022-08-30T12:49:47;5.77;;;5.20;;
3847;SDS011;1939;48.720;9.166;2022-08-30T12:52:14;7.73;;;5.13;;
3847;SDS011;1939;48.720;9.166;2022-08-30T12:54:39;4.87;;;4.47;;
3847;SDS011;1939;48.720;9.166;2022-08-30T12:57:05;11.03;;;5.33;;
3847;SDS011;1939;48.720;9.166;2022-08-30T13:02:21;6.17;;;5.20;;
3847;SDS011;1939;48.720;9.166;2022-08-30T13:04:47;7.30;;;4.73;;
3847;SDS011;1939;48.720;9.166;2022-08-30T13:07:23;5.73;;;5.23;;
3847;SDS011;1939;48.720;9.166;2022-08-30T13:09:49;5.70;;;5.20;;
3847;SDS011;1939;48.720;9.166;2022-08-30T13:12:25;4.77;;;4.40;;
3847;SDS011;1939;48.720;9.166;2022-08-30T13:14:50;5.07;;;4.60;;
3847;SDS011;1939;48.720;9.166;2022-08-30T13:19:43;7.18;;;4.93;;
3847;SDS011;1939;48.720;9.166;2022-08-30T13:22:25;4.93;;;4.43;;
3847;SDS011;1939;48.720;9.166;2022-08-30T13:24:51;5.77;;;5.37;;
3847;SDS011;1939;48.720;9.166;2022-08-30T13:27:16;6.30;;;5.13;;
3847;SDS011;1939;48.720;9.166;2022-08-30T13:29:42;5.07;;;4.67;;
3847;SDS011;1939;48.720;9.166;2022-08-30T13:32:07;4.90;;;4.50;;
3847;SDS011;1939;48.720;9.166;2022-08-30T13:34:32;7.40;;;5.10;;
3847;SDS011;1939;48.720;9.166;2022-08-30T13:36:59;5.63;;;5.13;;
3847;SDS011;1939;48.720;9.166;2022-08-30T13:39:25;8.30;;;5.80;;
3847;SDS011;1939;48.720;9.166;2022-08-30T13:41:50;6.93;;;6.20;;
3847;SDS011;1939;48.720;9.166;2022-08-30T13:44:16;7.13;;;4.87;;
3847;SDS011;1939;48.720;9.166;2022-08-30T13:46:41;8.20;;;5.57;;
3847;SDS011;1939;48.720;9.166;2022-08-30T13:49:08;5.30;;;4.90;;
3847;SDS011;1939;48.720;9.166;2022-08-30T13:51:35;5.87;;;5.23;;
3847;SDS011;1939;48.720;9.166;2022-08-30T13:54:00;16.93;;;5.83;;
3847;SDS011;1939;48.720;9.166;2022-08-30T13:56:26;8.60;;;5.03;;
3847;SDS011;1939;48.720;9.166;2022-08-30T13:58:56;5.20;;;4.70;;
3847;SDS011;1939;48.720;9.166;2022-08-30T14:01:21;7.90;;;5.53;;
3847;SDS011;1939;48.720;9.166;2022-08-30T14:03:46;6.73;;;6.23;;
3847;SDS011;1939;48.720;9.166;2022-08-30T14:06:11;6.57;;;4.93;;
3847;SDS011;1939;48.720;9.166;2022-08-30T14:08:36;6.53;;;4.87;;
3847;SDS011;1939;48.720;9.166;2022-08-30T14:11:02;5.33;;;4.83;;
3847;SDS011;1939;48.720;9.166;2022-08-30T14:13:28;8.87;;;5.40;;
3847;SDS011;1939;48.720;9.166;2022-08-30T14:15:53;7.20;;;5.13;;
3847;SDS011;1939;48.720;9.166;2022-08-30T14:18:18;4.97;;;4.57;;
3847;SDS011;1939;48.720;9.166;2022-08-30T14:20:44;5.37;;;4.97;;
3847;SDS011;1939;48.720;9.166;2022-08-30T14:23:09;5.43;;;4.43;;
3847;SDS011;1939;48.720;9.166;2022-08-30T14:25:34;6.47;;;5.07;;
3847;SDS011;1939;48.720;9.166;2022-08-30T14:27:59;6.50;;;5.60;;
3847;SDS011;1939;48.720;9.166;2022-08-30T14:30:25;6.63;;;5.40;;
3847;SDS011;1939;48.720;9.166;2022-08-30T14:32:51;6.20;;;4.93;;
3847;SDS011;1939;48.720;9.166;2022-08-30T14:35:16;8.43;;;4.77;;
3847;SDS011;1939;48.720;9.166;2022-08-30T14:37:46;6.20;;;5.60;;
3847;SDS011;1939;48.720;9.166;2022-08-30T14:40:12;5.90;;;5.40;;
3847;SDS011;1939;48.720;9.166;2022-08-30T14:42:37;5.97;;;5.47;;
3847;SDS011;1939;48.720;9.166;2022-08-30T14:45:02;6.53;;;5.77;;
3847;SDS011;1939;48.720;9.166;2022-08-30T14:47:28;6.13;;;5.23;;
3847;SDS011;1939;48.720;9.166;2022-08-30T14:49:53;7.03;;;5.73;;
3847;SDS011;1939;48.720;9.166;2022-08-30T14:52:22;6.07;;;5.57;;
3847;SDS011;1939;48.720;9.166;2022-08-30T14:54:47;6.27;;;5.47;;
3847;SDS011;1939;48.720;9.166;2022-08-30T14:57:13;7.40;;;5.27;;
3847;SDS011;1939;48.720;9.166;2022-08-30T14:59:38;5.27;;;4.87;;
3847;SDS011;1939;48.720;9.166;2022-08-30T15:02:03;8.97;;;5.97;;
3847;SDS011;1939;48.720;9.166;2022-08-30T15:04:29;7.70;;;5.10;;
3847;SDS011;1939;48.720;9.166;2022-08-30T15:06:54;6.73;;;5.50;;
3847;SDS011;1939;48.720;9.166;2022-08-30T15:09:21;6.30;;;5.43;;
3847;SDS011;1939;48.720;9.166;2022-08-30T15:11:47;6.17;;;5.10;;
3847;SDS011;1939;48.720;9.166;2022-08-30T15:14:12;6.50;;;4.93;;
3847;SDS011;1939;48.720;9.166;2022-08-30T15:16:38;5.77;;;5.20;;
3847;SDS011;1939;48.720;9.166;2022-08-30T15:19:04;7.20;;;5.57;;
3847;SDS011;1939;48.720;9.166;2022-08-30T15:21:32;5.53;;;4.70;;
3847;SDS011;1939;48.720;9.166;2022-08-30T15:23:58;10.40;;;6.23;;
3847;SDS011;1939;48.720;9.166;2022-08-30T15:26:23;6.93;;;5.33;;
3847;SDS011;1939;48.720;9.166;2022-08-30T15:28:48;5.23;;;4.77;;
3847;SDS011;1939;48.720;9.166;2022-08-30T15:31:14;8.13;;;5.53;;
3847;SDS011;1939;48.720;9.166;2022-08-30T15:33:39;7.63;;;5.53;;
3847;SDS011;1939;48.720;9.166;2022-08-30T15:36:05;7.00;;;6.23;;
3847;SDS011;1939;48.720;9.166;2022-08-30T15:38:31;7.17;;;6.47;;
3847;SDS011;1939;48.720;9.166;2022-08-30T15:40:56;7.33;;;5.00;;
3847;SDS011;1939;48.720;9.166;2022-08-30T15:43:26;6.17;;;5.57;;
3847;SDS011;1939;48.720;9.166;2022-08-30T15:45:52;6.43;;;5.63;;
3847;SDS011;1939;48.720;9.166;2022-08-30T15:48:17;5.70;;;5.13;;
3847;SDS011;1939;48.720;9.166;2022-08-30T15:50:42;7.40;;;5.80;;
3847;SDS011;1939;48.720;9.166;2022-08-30T15:53:07;6.03;;;5.53;;
3847;SDS011;1939;48.720;9.166;2022-08-30T15:55:33;7.10;;;5.70;;
3847;SDS011;1939;48.720;9.166;2022-08-30T15:57:58;6.87;;;6.17;;
3847;SDS011;1939;48.720;9.166;2022-08-30T16:00:23;7.13;;;6.10;;
3847;SDS011;1939;48.720;9.166;2022-08-30T16:02:48;7.63;;;6.17;;
3847;SDS011;1939;48.720;9.166;2022-08-30T16:05:15;7.30;;;6.17;;
3847;SDS011;1939;48.720;9.166;2022-08-30T16:07:41;7.27;;;6.20;;
3847;SDS011;1939;48.720;9.166;2022-08-30T16:10:09;6.37;;;5.77;;